Time;durP1;ratioP1;P1;durP2;ratioP2;P2;SDS_P1;SDS_P2;PMS_P1;PMS_P2;Temp;Humidity;BMP_temperature;BMP_pressure;BME280_temperature;BME280_humidity;BME280_pressure;Samples;Min_cycle;Max_cycle;Signal;HPM_P1;HPM_P2
2022/03/27 00:00:52;;;;;;;6.33;3.47;;;12.00;99.90;;;;;;5084294;28;20476;-69
2022/03/27 00:03:18;;;;;;;3.07;2.33;;;12.00;99.90;;;;;;5094253;28;20481;-69
2022/03/27 00:05:45;;;;;;;6.60;3.43;;;11.80;99.90;;;;;;5086690;28;20675;-69
2022/03/27 00:08:12;;;;;;;4.10;2.53;;;11.80;99.90;;;;;;5082105;28;20517;-70
2022/03/27 00:13:24;;;;;;;4.60;2.63;;;11.90;99.90;;;;;;5091794;27;20829;-69
2022/03/27 00:15:52;;;;;;;5.20;3.00;;;11.90;99.90;;;;;;5093087;27;20508;-68
2022/03/27 00:18:19;;;;;;;4.90;3.00;;;11.80;99.90;;;;;;5097793;27;20456;-70
2022/03/27 00:20:45;;;;;;;10.73;3.57;;;11.70;99.90;;;;;;5075195;27;20512;-70
2022/03/27 00:23:12;;;;;;;4.90;2.90;;;11.80;99.90;;;;;;5093180;28;20617;-70
2022/03/27 00:25:39;;;;;;;11.00;4.13;;;11.90;99.90;;;;;;5089097;27;20456;-69
2022/03/27 00:28:06;;;;;;;4.87;3.20;;;11.90;99.90;;;;;;5097322;27;20472;-70
2022/03/27 00:30:33;;;;;;;5.70;3.30;;;12.00;99.90;;;;;;5099068;27;20779;-70
2022/03/27 00:33:01;;;;;;;3.80;2.80;;;12.00;99.90;;;;;;5096373;27;20453;-68
2022/03/27 00:35:28;;;;;;;4.67;3.27;;;12.00;99.90;;;;;;5099604;27;20444;-68
2022/03/27 00:37:55;;;;;;;4.83;3.53;;;12.00;99.90;;;;;;5087449;27;20432;-70
2022/03/27 00:40:22;;;;;;;4.60;3.40;;;11.90;99.90;;;;;;5098512;27;20918;-69
2022/03/27 00:42:48;;;;;;;4.70;3.97;;;11.60;99.90;;;;;;5092472;27;20545;-69
2022/03/27 00:45:15;;;;;;;4.13;3.23;;;11.30;99.90;;;;;;5089329;27;20578;-69
2022/03/27 00:47:43;;;;;;;5.30;3.80;;;11.20;99.90;;;;;;5090085;27;20465;-69
2022/03/27 00:50:11;;;;;;;4.47;3.43;;;11.00;99.90;;;;;;5080205;27;20547;-69
2022/03/27 00:52:38;;;;;;;5.17;3.53;;;11.10;99.90;;;;;;5089001;27;21246;-68
2022/03/27 00:55:06;;;;;;;5.30;3.53;;;11.20;99.90;;;;;;5089417;27;20442;-71
2022/03/27 00:57:32;;;;;;;11.10;3.43;;;11.10;99.90;;;;;;5083810;27;20441;-70
2022/03/27 00:59:59;;;;;;;4.67;3.87;;;11.20;99.90;;;;;;5078359;28;21069;-70
2022/03/27 01:02:26;;;;;;;6.07;3.60;;;11.40;99.90;;;;;;5079682;27;20443;-69
2022/03/27 01:04:55;;;;;;;5.37;3.77;;;11.60;99.90;;;;;;5085149;27;21240;-68
2022/03/27 01:07:23;;;;;;;9.00;3.30;;;11.70;99.90;;;;;;5082807;27;20941;-70
2022/03/27 01:09:49;;;;;;;5.97;3.80;;;11.70;99.90;;;;;;5081009;27;20491;-70
2022/03/27 01:12:24;;;;;;;9.53;3.93;;;11.70;99.90;;;;;;5082327;27;20899;-71
2022/03/27 01:14:52;;;;;;;4.47;3.30;;;11.70;99.90;;;;;;5072362;27;20536;-70
2022/03/27 01:17:20;;;;;;;9.50;6.00;;;11.80;99.90;;;;;;5085928;27;20517;-69
2022/03/27 01:19:49;;;;;;;5.70;4.27;;;11.90;99.90;;;;;;5078976;28;20533;-70
2022/03/27 01:22:18;;;;;;;8.27;4.90;;;11.90;99.90;;;;;;5075979;27;20557;-69
2022/03/27 01:24:45;;;;;;;7.50;4.10;;;11.90;99.90;;;;;;5091280;27;20463;-70
2022/03/27 01:27:12;;;;;;;7.30;4.60;;;11.90;99.90;;;;;;5091776;27;20460;-69
2022/03/27 01:29:39;;;;;;;12.23;4.97;;;11.60;99.90;;;;;;5083307;27;20435;-69
2022/03/27 01:32:08;;;;;;;8.13;4.37;;;11.50;99.90;;;;;;5073626;27;20466;-70
2022/03/27 01:34:35;;;;;;;7.17;4.53;;;11.60;99.90;;;;;;5089950;27;20574;-69
2022/03/27 01:37:04;;;;;;;6.17;4.40;;;11.40;99.90;;;;;;5081293;27;20707;-69
2022/03/27 01:39:33;;;;;;;12.80;5.40;;;11.30;99.90;;;;;;5081623;28;21556;-68
2022/03/27 01:41:59;;;;;;;5.83;4.70;;;11.30;99.90;;;;;;5091055;27;20439;-69
2022/03/27 01:44:26;;;;;;;8.07;4.40;;;11.30;99.90;;;;;;5063040;27;20477;-68
2022/03/27 01:46:55;;;;;;;15.23;5.57;;;11.50;99.90;;;;;;5080395;28;20468;-68
2022/03/27 01:49:22;;;;;;;9.17;5.40;;;11.40;99.90;;;;;;5086887;27;20427;-69
2022/03/27 01:51:48;;;;;;;8.43;5.20;;;11.30;99.90;;;;;;5083289;28;20504;-69
2022/03/27 01:54:19;;;;;;;5.80;4.70;;;11.10;99.90;;;;;;5075988;27;20537;-68
2022/03/27 01:56:47;;;;;;;8.00;6.53;;;10.80;99.90;;;;;;5076947;27;20424;-68
2022/03/27 01:59:14;;;;;;;9.30;4.30;;;10.70;99.90;;;;;;5090667;27;20998;-68
2022/03/27 02:01:40;;;;;;;17.00;7.20;;;10.70;99.90;;;;;;5085643;27;20472;-69
2022/03/27 02:04:08;;;;;;;10.13;6.40;;;10.80;99.90;;;;;;5085589;27;20492;-69
2022/03/27 02:06:37;;;;;;;9.33;5.03;;;10.70;99.90;;;;;;5067098;27;20450;-68
2022/03/27 02:09:04;;;;;;;12.17;5.47;;;10.80;99.90;;;;;;5076451;27;20457;-68
2022/03/27 02:11:31;;;;;;;8.03;5.87;;;10.70;99.90;;;;;;5080355;28;20930;-69
2022/03/27 02:13:59;;;;;;;12.23;7.07;;;10.50;99.90;;;;;;5072659;28;20462;-69
2022/03/27 02:16:26;;;;;;;11.20;6.93;;;10.60;99.90;;;;;;5084520;27;20469;-69
2022/03/27 02:18:53;;;;;;;8.20;5.67;;;10.60;99.90;;;;;;5082166;27;21317;-69
2022/03/27 02:21:19;;;;;;;12.30;6.53;;;10.70;99.90;;;;;;5092669;28;20704;-69
2022/03/27 02:23:46;;;;;;;10.40;6.50;;;10.70;99.90;;;;;;5099314;27;20489;-69
2022/03/27 02:26:13;;;;;;;13.90;6.67;;;10.60;99.90;;;;;;5080533;27;20457;-69
2022/03/27 02:28:40;;;;;;;11.73;6.77;;;10.60;99.90;;;;;;5085089;28;22873;-69
2022/03/27 02:31:09;;;;;;;8.60;5.83;;;10.60;99.90;;;;;;5073745;27;21094;-69
2022/03/27 02:33:35;;;;;;;9.50;7.40;;;10.60;99.90;;;;;;5087006;27;20438;-69
2022/03/27 02:36:02;;;;;;;15.40;6.97;;;10.50;99.90;;;;;;5085150;28;20596;-70
2022/03/27 02:38:29;;;;;;;9.40;6.27;;;10.70;99.90;;;;;;5080771;27;20460;-69
2022/03/27 02:40:56;;;;;;;10.50;7.30;;;10.70;99.90;;;;;;5080723;28;20956;-69
2022/03/27 02:43:22;;;;;;;12.10;8.80;;;10.60;99.90;;;;;;5088558;28;20439;-69
2022/03/27 02:45:50;;;;;;;13.73;7.50;;;10.70;99.90;;;;;;5080642;28;20590;-69
2022/03/27 02:48:18;;;;;;;13.20;7.83;;;10.70;99.90;;;;;;5084387;27;20457;-69
2022/03/27 02:50:45;;;;;;;11.40;6.30;;;10.60;99.90;;;;;;5097474;27;21057;-69
2022/03/27 02:53:12;;;;;;;19.53;6.17;;;10.50;99.90;;;;;;5083882;28;20442;-69
2022/03/27 02:55:39;;;;;;;9.00;6.60;;;10.40;99.90;;;;;;5083733;27;20423;-68
2022/03/27 02:58:06;;;;;;;15.23;9.73;;;10.40;99.90;;;;;;5079443;27;20498;-69
2022/03/27 03:00:33;;;;;;;11.47;9.13;;;10.50;99.90;;;;;;5088437;27;20470;-69
2022/03/27 03:03:00;;;;;;;14.30;6.97;;;10.50;99.90;;;;;;5083349;27;20520;-69
2022/03/27 03:05:28;;;;;;;15.30;7.47;;;10.70;99.90;;;;;;5086543;27;20494;-69
2022/03/27 03:07:55;;;;;;;9.60;6.17;;;10.70;99.90;;;;;;5090886;27;20952;-69
2022/03/27 03:10:23;;;;;;;18.43;8.30;;;10.70;99.90;;;;;;5078958;28;20537;-69
2022/03/27 03:12:49;;;;;;;16.67;9.83;;;10.80;99.90;;;;;;5082224;27;20642;-69
2022/03/27 03:15:17;;;;;;;11.97;7.83;;;11.00;99.90;;;;;;5086303;27;20467;-69
2022/03/27 03:17:44;;;;;;;15.20;9.30;;;11.10;99.90;;;;;;5082038;28;20474;-69
2022/03/27 03:20:12;;;;;;;13.37;8.27;;;11.20;99.90;;;;;;5076933;28;21035;-69
2022/03/27 03:22:41;;;;;;;16.00;9.17;;;11.00;99.90;;;;;;5080695;28;20453;-69
2022/03/27 03:25:09;;;;;;;16.40;8.70;;;11.10;99.90;;;;;;5090801;28;20458;-69
2022/03/27 03:27:36;;;;;;;13.67;9.00;;;11.10;99.90;;;;;;5076350;28;20442;-69
2022/03/27 03:30:03;;;;;;;14.40;8.47;;;11.00;99.90;;;;;;5084364;28;20547;-69
2022/03/27 03:32:30;;;;;;;14.67;8.07;;;11.00;99.90;;;;;;5088377;28;20548;-69
2022/03/27 03:34:57;;;;;;;14.37;8.87;;;10.90;99.90;;;;;;5088584;28;20989;-68
2022/03/27 03:37:24;;;;;;;13.90;7.70;;;11.00;99.90;;;;;;5076641;28;20536;-68
2022/03/27 03:39:52;;;;;;;15.27;8.63;;;11.00;99.90;;;;;;5074614;28;21668;-68
2022/03/27 03:42:19;;;;;;;15.20;10.70;;;11.00;99.90;;;;;;5087836;28;20581;-69
2022/03/27 03:44:45;;;;;;;20.63;9.60;;;10.90;99.90;;;;;;5079396;28;20587;-69
2022/03/27 03:47:12;;;;;;;15.40;7.20;;;10.70;99.90;;;;;;5090827;27;20784;-69
2022/03/27 03:49:39;;;;;;;19.10;10.20;;;10.60;99.90;;;;;;5087805;27;20448;-69
2022/03/27 03:52:07;;;;;;;12.23;7.07;;;10.60;99.90;;;;;;5082957;27;20573;-68
2022/03/27 03:54:34;;;;;;;11.50;8.40;;;10.90;99.90;;;;;;5079311;28;20459;-69
2022/03/27 03:57:03;;;;;;;10.17;7.67;;;10.80;99.90;;;;;;5089456;27;20529;-69
2022/03/27 03:59:32;;;;;;;15.80;9.17;;;10.60;99.90;;;;;;5093358;27;20423;-69
2022/03/27 04:02:00;;;;;;;10.77;7.20;;;10.40;99.90;;;;;;5077710;28;20604;-69
2022/03/27 04:04:27;;;;;;;15.00;8.80;;;10.40;99.90;;;;;;5084642;27;20575;-68
2022/03/27 04:06:54;;;;;;;21.67;9.47;;;10.50;99.90;;;;;;5085579;27;20436;-73
2022/03/27 04:09:21;;;;;;;16.17;9.83;;;10.50;99.90;;;;;;5085961;27;20440;-69
2022/03/27 04:11:48;;;;;;;12.47;7.50;;;10.40;99.90;;;;;;5078769;27;20481;-69
2022/03/27 04:14:17;;;;;;;13.60;7.30;;;10.40;99.90;;;;;;5085601;28;20837;-68
2022/03/27 04:16:44;;;;;;;13.93;8.97;;;10.40;99.90;;;;;;5083292;28;20488;-69
2022/03/27 04:19:12;;;;;;;17.07;9.97;;;10.50;99.90;;;;;;5082701;27;21353;-69
2022/03/27 04:21:39;;;;;;;15.70;8.53;;;10.40;99.90;;;;;;5088322;27;20510;-69
2022/03/27 04:24:07;;;;;;;12.00;7.33;;;10.50;99.90;;;;;;5091143;27;20542;-69
2022/03/27 04:26:33;;;;;;;17.37;8.50;;;10.40;99.90;;;;;;5084606;27;20456;-69
2022/03/27 04:29:02;;;;;;;21.50;7.97;;;10.20;99.90;;;;;;5088509;27;20511;-68
2022/03/27 04:31:31;;;;;;;11.00;7.00;;;10.20;99.90;;;;;;5080858;27;20485;-68
2022/03/27 04:33:58;;;;;;;15.83;9.50;;;10.20;99.90;;;;;;5086483;27;20457;-68
2022/03/27 04:36:24;;;;;;;15.43;7.93;;;10.10;99.90;;;;;;5069197;28;20480;-68
2022/03/27 04:38:51;;;;;;;18.57;10.50;;;10.10;99.90;;;;;;5080123;27;20999;-69
2022/03/27 04:41:18;;;;;;;12.60;7.70;;;10.20;99.90;;;;;;5095987;27;20463;-69
2022/03/27 04:43:47;;;;;;;10.13;8.13;;;10.30;99.90;;;;;;5091208;27;20435;-69
2022/03/27 04:46:13;;;;;;;11.60;7.70;;;10.10;99.90;;;;;;5078185;27;20480;-69
2022/03/27 04:48:42;;;;;;;11.73;7.70;;;10.00;99.90;;;;;;5078179;28;20654;-68
2022/03/27 04:51:09;;;;;;;16.83;7.40;;;10.20;99.90;;;;;;5084093;28;20481;-70
2022/03/27 04:53:35;;;;;;;17.10;9.47;;;10.20;99.90;;;;;;5083231;28;21059;-69
2022/03/27 04:56:02;;;;;;;14.90;8.20;;;10.20;99.90;;;;;;5085302;27;20541;-70
2022/03/27 04:58:29;;;;;;;21.17;8.40;;;10.30;99.90;;;;;;5085441;27;20441;-70
2022/03/27 05:00:56;;;;;;;15.87;8.90;;;10.30;99.90;;;;;;5087426;27;20500;-69
2022/03/27 05:03:23;;;;;;;16.20;9.83;;;10.10;99.90;;;;;;5077460;27;20548;-70
2022/03/27 05:05:51;;;;;;;13.83;6.87;;;10.00;99.90;;;;;;5078357;27;21080;-69
2022/03/27 05:08:18;;;;;;;12.30;7.60;;;10.00;99.90;;;;;;5079070;27;20880;-69
2022/03/27 05:10:48;;;;;;;19.80;9.30;;;10.10;99.90;;;;;;5083309;27;20447;-69
2022/03/27 05:13:14;;;;;;;10.80;7.57;;;10.30;99.90;;;;;;5084478;27;20963;-69
2022/03/27 05:15:41;;;;;;;12.30;7.87;;;10.30;99.90;;;;;;5075982;27;20432;-69
2022/03/27 05:18:08;;;;;;;17.53;8.50;;;10.40;99.90;;;;;;5085440;27;20431;-69
2022/03/27 05:20:39;;;;;;;12.50;8.80;;;10.20;99.90;;;;;;5078774;27;20775;-69
2022/03/27 05:23:08;;;;;;;13.70;6.67;;;10.20;99.90;;;;;;5086436;27;20472;-69
2022/03/27 05:25:40;;;;;;;17.93;10.57;;;10.20;99.90;;;;;;5077787;27;20501;-69
2022/03/27 05:28:10;;;;;;;17.57;7.73;;;10.10;99.90;;;;;;5092298;27;20440;-69
2022/03/27 05:30:38;;;;;;;14.10;8.10;;;10.10;99.90;;;;;;5086768;27;20447;-69
2022/03/27 05:33:05;;;;;;;14.37;8.53;;;10.00;99.90;;;;;;5081828;27;20469;-69
2022/03/27 05:35:32;;;;;;;13.07;7.67;;;10.00;99.90;;;;;;5091189;27;20427;-68
2022/03/27 05:37:59;;;;;;;17.00;8.97;;;9.90;99.90;;;;;;5097024;27;20766;-68
2022/03/27 05:40:28;;;;;;;9.87;6.63;;;9.80;99.90;;;;;;5096837;28;20447;-68
2022/03/27 05:42:55;;;;;;;15.77;8.23;;;9.80;99.90;;;;;;5095861;27;20436;-68
2022/03/27 05:45:23;;;;;;;14.00;8.97;;;9.80;99.90;;;;;;5086373;28;20484;-68
2022/03/27 05:47:50;;;;;;;12.50;7.70;;;9.80;99.90;;;;;;5089190;28;20443;-69
2022/03/27 05:50:19;;;;;;;12.07;8.20;;;9.90;99.90;;;;;;5084032;27;20481;-68
2022/03/27 05:52:46;;;;;;;18.27;8.60;;;9.90;99.90;;;;;;5099722;27;20515;-68
2022/03/27 05:55:13;;;;;;;10.70;7.57;;;9.90;99.90;;;;;;5102150;27;20440;-69
2022/03/27 05:57:42;;;;;;;13.00;8.33;;;9.90;99.90;;;;;;5101576;27;20789;-68
2022/03/27 06:00:12;;;;;;;16.07;8.50;;;9.80;99.90;;;;;;5096115;27;20507;-68
2022/03/27 06:02:39;;;;;;;13.50;7.47;;;10.00;99.90;;;;;;5097203;27;20899;-68
2022/03/27 06:05:06;;;;;;;10.30;5.93;;;9.80;99.90;;;;;;5081611;27;21272;-68
2022/03/27 06:07:41;;;;;;;10.13;6.87;;;9.80;99.90;;;;;;5092527;28;20832;-68
2022/03/27 06:10:10;;;;;;;14.10;7.53;;;9.70;99.90;;;;;;5082993;27;20451;-68
2022/03/27 06:12:36;;;;;;;12.67;8.03;;;9.90;99.90;;;;;;5103635;27;20431;-69
2022/03/27 06:15:05;;;;;;;14.20;7.93;;;9.80;99.90;;;;;;5094543;27;20426;-68
2022/03/27 06:17:39;;;;;;;14.27;8.37;;;9.90;99.90;;;;;;5092307;27;20521;-69
2022/03/27 06:20:07;;;;;;;15.80;8.27;;;10.00;99.90;;;;;;5101469;27;20542;-69
2022/03/27 06:22:33;;;;;;;13.50;7.13;;;10.20;99.90;;;;;;5098633;27;20481;-69
2022/03/27 06:25:00;;;;;;;14.20;7.53;;;10.00;99.90;;;;;;5093757;27;20460;-68
2022/03/27 06:27:27;;;;;;;15.40;7.70;;;10.10;99.90;;;;;;5093689;27;20900;-69
2022/03/27 06:29:54;;;;;;;14.10;6.50;;;10.30;99.90;;;;;;5079223;28;20485;-69
2022/03/27 06:32:22;;;;;;;14.10;7.70;;;10.40;99.90;;;;;;5087694;27;20807;-69
2022/03/27 06:34:48;;;;;;;11.00;6.80;;;10.30;99.90;;;;;;5080838;27;20465;-68
2022/03/27 06:37:15;;;;;;;13.30;7.63;;;10.20;99.90;;;;;;5090745;28;20464;-68
2022/03/27 06:39:42;;;;;;;12.93;8.87;;;10.20;99.90;;;;;;5095229;27;20431;-69
2022/03/27 06:42:12;;;;;;;17.40;9.00;;;10.30;99.90;;;;;;5096831;27;20991;-68
2022/03/27 06:44:38;;;;;;;16.27;6.27;;;10.40;99.90;;;;;;5088738;28;20911;-68
2022/03/27 06:47:07;;;;;;;9.13;6.07;;;10.40;99.90;;;;;;5101604;27;20484;-69
2022/03/27 06:49:35;;;;;;;12.00;8.40;;;10.50;99.90;;;;;;5098771;27;20523;-69
2022/03/27 06:52:02;;;;;;;14.90;7.17;;;10.50;99.90;;;;;;5087327;27;20950;-69
2022/03/27 06:54:29;;;;;;;15.00;8.43;;;10.60;99.90;;;;;;5082730;28;21729;-68
2022/03/27 06:56:56;;;;;;;12.00;6.83;;;10.50;99.90;;;;;;5098691;28;20803;-69
2022/03/27 06:59:23;;;;;;;9.47;6.83;;;10.70;99.90;;;;;;5088643;27;20431;-68
2022/03/27 07:04:30;;;;;;;15.27;8.87;;;10.80;99.90;;;;;;5045026;28;20984;-71
2022/03/27 07:06:58;;;;;;;11.60;6.77;;;10.70;99.90;;;;;;5086546;28;20553;-68
2022/03/27 07:09:28;;;;;;;14.43;7.90;;;10.80;99.90;;;;;;5092209;27;20788;-67
2022/03/27 07:11:54;;;;;;;10.27;6.23;;;10.80;99.90;;;;;;5075223;27;20832;-68
2022/03/27 07:14:24;;;;;;;15.57;8.00;;;10.70;99.90;;;;;;5073447;28;20651;-68
2022/03/27 07:16:50;;;;;;;9.90;6.30;;;10.80;99.90;;;;;;5085983;28;20802;-67
2022/03/27 07:19:17;;;;;;;16.90;9.67;;;10.90;99.90;;;;;;5085317;27;20456;-66
2022/03/27 07:21:44;;;;;;;17.40;7.77;;;11.00;99.90;;;;;;5058645;28;22241;-70
2022/03/27 07:24:12;;;;;;;11.43;7.13;;;11.10;99.90;;;;;;5073597;28;21288;-68
2022/03/27 07:26:43;;;;;;;18.33;7.33;;;10.80;99.90;;;;;;5073547;28;20471;-68
2022/03/27 07:29:11;;;;;;;21.50;8.97;;;10.80;99.90;;;;;;5072890;28;20435;-67
2022/03/27 07:31:37;;;;;;;21.10;8.40;;;10.60;99.90;;;;;;5073813;28;20473;-69
2022/03/27 07:34:05;;;;;;;20.20;9.67;;;10.60;99.90;;;;;;5083553;28;20462;-68
2022/03/27 07:36:32;;;;;;;17.50;8.87;;;10.80;99.90;;;;;;5079653;28;20428;-69
2022/03/27 07:38:59;;;;;;;14.50;7.87;;;10.60;99.90;;;;;;5079233;28;20439;-68
2022/03/27 07:41:27;;;;;;;10.27;6.17;;;10.40;99.90;;;;;;5087142;28;20439;-68
2022/03/27 07:43:54;;;;;;;15.40;7.10;;;10.50;99.90;;;;;;5081888;28;20457;-68
2022/03/27 07:46:20;;;;;;;16.00;10.40;;;10.40;99.90;;;;;;5092960;28;20525;-68
2022/03/27 07:48:47;;;;;;;13.97;8.00;;;10.50;99.90;;;;;;5100151;28;20423;-69
2022/03/27 07:51:14;;;;;;;15.57;7.53;;;10.60;99.90;;;;;;5090091;28;20440;-68
2022/03/27 07:53:41;;;;;;;19.23;9.50;;;10.60;99.90;;;;;;5092446;28;20441;-69
2022/03/27 07:56:07;;;;;;;19.80;10.13;;;10.60;99.90;;;;;;5095131;28;20870;-68
2022/03/27 07:58:36;;;;;;;16.37;8.57;;;10.60;99.90;;;;;;5103480;28;20437;-68
2022/03/27 08:01:03;;;;;;;15.73;8.13;;;10.90;99.90;;;;;;5092815;28;21019;-68
2022/03/27 08:03:30;;;;;;;13.07;7.10;;;11.00;99.90;;;;;;5092847;28;20446;-68
2022/03/27 08:05:56;;;;;;;15.17;9.43;;;10.90;99.90;;;;;;5094527;28;20931;-68
2022/03/27 08:08:23;;;;;;;11.00;6.17;;;11.20;99.90;;;;;;5093476;28;21392;-69
2022/03/27 08:10:49;;;;;;;14.40;9.07;;;11.60;99.90;;;;;;5090509;28;20959;-68
2022/03/27 08:13:16;;;;;;;19.07;9.90;;;11.90;99.90;;;;;;5096244;28;20766;-68
2022/03/27 08:15:44;;;;;;;12.23;7.70;;;11.80;99.90;;;;;;5093859;28;20452;-68
2022/03/27 08:18:12;;;;;;;20.30;9.77;;;11.50;99.90;;;;;;5095532;28;21008;-68
2022/03/27 08:20:40;;;;;;;14.00;8.87;;;11.60;99.90;;;;;;5096878;28;20862;-67
2022/03/27 08:23:08;;;;;;;15.07;7.77;;;11.90;99.90;;;;;;5095527;28;20425;-68
2022/03/27 08:28:20;;;;;;;14.20;7.40;;;12.10;99.90;;;;;;5079352;28;20430;-67
2022/03/27 08:30:49;;;;;;;14.43;8.07;;;11.90;99.90;;;;;;5067361;28;20625;-68
2022/03/27 08:33:16;;;;;;;16.40;9.10;;;11.80;99.90;;;;;;5075043;28;20454;-68
2022/03/27 08:35:44;;;;;;;11.17;7.10;;;12.00;99.90;;;;;;5086394;27;20983;-67
2022/03/27 08:38:11;;;;;;;17.67;9.07;;;12.10;99.90;;;;;;5080302;27;20713;-68
2022/03/27 08:40:39;;;;;;;22.50;10.10;;;12.00;99.90;;;;;;5082727;28;20474;-68
2022/03/27 08:43:07;;;;;;;14.50;9.37;;;12.30;99.90;;;;;;5084230;27;21252;-68
2022/03/27 08:45:33;;;;;;;22.90;8.60;;;12.70;99.90;;;;;;5093592;27;21115;-67
2022/03/27 08:48:02;;;;;;;18.60;8.27;;;12.90;99.90;;;;;;5082496;27;20461;-68
2022/03/27 08:50:30;;;;;;;24.00;9.30;;;12.80;99.90;;;;;;5093599;27;20548;-68
2022/03/27 08:52:59;;;;;;;13.10;8.50;;;12.60;99.90;;;;;;5086982;27;20802;-68
2022/03/27 08:55:38;;;;;;;14.30;8.17;;;12.80;99.90;;;;;;5089171;27;20464;-67
2022/03/27 08:58:07;;;;;;;13.70;7.80;;;13.00;99.90;;;;;;5088065;27;20564;-68
2022/03/27 09:00:34;;;;;;;11.23;6.70;;;13.40;99.90;;;;;;5085553;27;20574;-68
2022/03/27 09:03:04;;;;;;;13.97;8.87;;;13.60;99.90;;;;;;5079988;27;20480;-68
2022/03/27 09:05:33;;;;;;;11.40;7.07;;;14.30;99.90;;;;;;5065715;28;20461;-68
2022/03/27 09:08:04;;;;;;;14.13;7.37;;;14.20;99.90;;;;;;5079837;27;20511;-67
2022/03/27 09:10:31;;;;;;;12.00;8.20;;;14.50;99.90;;;;;;5089446;27;20536;-68
2022/03/27 09:12:58;;;;;;;12.00;7.30;;;15.00;99.90;;;;;;5092716;27;20791;-68
2022/03/27 09:15:25;;;;;;;13.87;7.67;;;15.70;99.90;;;;;;5089833;27;20841;-70
2022/03/27 09:18:00;;;;;;;11.13;6.00;;;15.50;99.90;;;;;;5088938;27;20545;-70
2022/03/27 09:20:39;;;;;;;12.73;7.83;;;15.90;99.90;;;;;;5086035;27;20515;-70
2022/03/27 09:23:19;;;;;;;14.53;9.13;;;15.70;99.90;;;;;;5085592;28;20456;-70
2022/03/27 09:25:48;;;;;;;10.53;7.30;;;15.80;99.90;;;;;;5089299;27;20545;-69
2022/03/27 09:28:26;;;;;;;19.87;7.97;;;15.40;99.90;;;;;;5072704;28;20465;-69
2022/03/27 09:30:54;;;;;;;13.00;8.70;;;15.20;99.90;;;;;;5083249;28;20975;-69
2022/03/27 09:33:31;;;;;;;18.53;9.97;;;15.10;99.90;;;;;;5088713;27;20462;-69
2022/03/27 09:36:06;;;;;;;13.50;7.27;;;15.80;99.90;;;;;;5082558;27;20702;-69
2022/03/27 09:38:33;;;;;;;11.47;6.63;;;15.90;99.90;;;;;;5092726;27;20487;-69
2022/03/27 09:41:00;;;;;;;12.93;7.40;;;16.10;99.90;;;;;;5080218;27;20867;-69
2022/03/27 09:43:27;;;;;;;14.40;9.13;;;16.10;99.90;;;;;;5088894;27;20468;-69
2022/03/27 09:45:58;;;;;;;14.90;7.43;;;16.60;99.90;;;;;;5096760;27;20453;-69
2022/03/27 09:48:25;;;;;;;13.60;8.30;;;17.30;99.90;;;;;;5087960;27;20464;-69
2022/03/27 09:50:53;;;;;;;13.47;6.83;;;17.80;99.90;;;;;;5095320;27;21243;-69
2022/03/27 09:53:24;;;;;;;13.93;8.30;;;17.20;99.90;;;;;;5089896;27;20507;-70
2022/03/27 09:56:10;;;;;;;12.03;8.00;;;17.90;99.90;;;;;;5100165;27;20695;-69
2022/03/27 09:58:39;;;;;;;16.30;8.70;;;18.70;99.90;;;;;;5080605;27;21135;-70
2022/03/27 10:01:11;;;;;;;13.00;9.20;;;18.80;99.90;;;;;;5099661;27;20479;-69
2022/03/27 10:03:39;;;;;;;14.67;8.43;;;18.40;99.90;;;;;;5091284;27;20460;-70
2022/03/27 10:06:29;;;;;;;14.17;8.70;;;19.50;99.90;;;;;;5091177;27;20456;-70
2022/03/27 10:08:58;;;;;;;14.20;8.83;;;20.70;99.90;;;;;;5095790;27;20524;-69
2022/03/27 10:11:25;;;;;;;12.63;8.07;;;20.90;99.90;;;;;;5073803;27;20545;-69
2022/03/27 10:13:53;;;;;;;10.80;9.67;;;20.60;99.90;;;;;;5082037;27;20465;-69
2022/03/27 10:16:26;;;;;;;13.60;8.60;;;20.40;99.90;;;;;;5079744;27;20944;-70
2022/03/27 10:18:55;;;;;;;13.07;8.60;;;21.10;99.90;;;;;;5092668;27;20456;-70
2022/03/27 10:21:27;;;;;;;16.93;10.37;;;22.00;99.90;;;;;;5073892;27;20481;-69
2022/03/27 10:24:01;;;;;;;14.17;10.10;;;22.80;99.90;;;;;;5088672;27;21047;-68
2022/03/27 10:26:31;;;;;;;9.57;7.40;;;23.00;99.90;;;;;;5088423;27;20534;-68
2022/03/27 10:28:59;;;;;;;10.47;7.43;;;23.30;98.90;;;;;;5077997;27;20843;-68
2022/03/27 10:31:27;;;;;;;13.50;9.20;;;22.10;99.40;;;;;;5081766;27;20787;-68
2022/03/27 10:33:55;;;;;;;12.83;9.40;;;22.20;99.60;;;;;;5072182;27;20552;-68
2022/03/27 10:36:31;;;;;;;14.30;9.10;;;22.90;99.40;;;;;;5061585;28;20936;-68
2022/03/27 10:39:08;;;;;;;15.87;9.27;;;23.00;98.10;;;;;;5069648;27;21528;-67
2022/03/27 10:41:42;;;;;;;15.27;8.30;;;23.10;96.20;;;;;;5082750;27;20548;-67
2022/03/27 10:44:14;;;;;;;12.47;7.20;;;22.70;96.60;;;;;;5088512;28;20865;-68
2022/03/27 10:46:42;;;;;;;11.23;8.03;;;22.90;96.10;;;;;;5088025;28;21789;-69
2022/03/27 10:49:14;;;;;;;13.23;8.50;;;23.70;96.30;;;;;;5067870;28;20461;-69
2022/03/27 10:51:42;;;;;;;11.83;8.57;;;24.10;95.10;;;;;;5072616;28;25512;-69
2022/03/27 10:54:14;;;;;;;13.40;7.87;;;25.40;92.60;;;;;;5086557;27;20738;-71
2022/03/27 10:56:44;;;;;;;12.33;9.10;;;26.40;90.50;;;;;;5080007;28;20456;-70
2022/03/27 10:59:14;;;;;;;10.13;8.17;;;26.70;87.70;;;;;;5081640;28;20464;-70
2022/03/27 11:01:43;;;;;;;11.33;7.80;;;26.00;84.10;;;;;;5087690;27;20855;-70
2022/03/27 11:04:12;;;;;;;7.50;6.80;;;25.80;85.90;;;;;;5087759;27;20461;-70
2022/03/27 11:06:40;;;;;;;9.83;7.73;;;24.50;87.70;;;;;;5070366;27;20481;-70
2022/03/27 11:09:08;;;;;;;10.63;7.97;;;23.90;88.60;;;;;;5084746;27;20468;-71
2022/03/27 11:12:04;;;;;;;8.70;6.70;;;24.30;87.60;;;;;;5091453;27;20483;-70
2022/03/27 11:15:02;;;;;;;7.77;5.57;;;25.40;86.40;;;;;;5093787;27;20500;-69
2022/03/27 11:17:49;;;;;;;9.73;7.00;;;25.50;82.50;;;;;;5093377;28;20999;-69
2022/03/27 11:20:53;;;;;;;8.87;6.60;;;25.80;81.70;;;;;;5078171;27;20945;-69
2022/03/27 11:23:35;;;;;;;11.90;6.80;;;25.70;79.00;;;;;;5096619;28;20466;-71
2022/03/27 11:26:03;;;;;;;9.47;6.83;;;26.20;77.60;;;;;;5092351;27;20461;-69
2022/03/27 11:28:47;;;;;;;6.50;4.53;;;25.60;78.90;;;;;;5077769;28;21942;-70
2022/03/27 11:31:24;;;;;;;7.10;6.10;;;25.50;78.60;;;;;;5085233;28;20488;-70
2022/03/27 11:34:17;;;;;;;10.47;8.07;;;25.50;79.20;;;;;;5079307;28;20460;-71
2022/03/27 11:36:45;;;;;;;10.03;7.00;;;25.10;77.40;;;;;;5082768;28;20461;-70
2022/03/27 11:39:13;;;;;;;7.27;5.93;;;25.80;76.80;;;;;;5085859;28;21044;-69
2022/03/27 11:41:43;;;;;;;9.30;6.53;;;26.70;73.10;;;;;;5070273;28;20488;-70
2022/03/27 11:47:11;;;;;;;13.10;7.20;;;27.60;70.40;;;;;;5089981;28;20479;-70
2022/03/27 11:49:39;;;;;;;7.87;5.53;;;27.80;69.00;;;;;;5077081;28;20462;-69
2022/03/27 11:52:08;;;;;;;10.90;6.50;;;27.70;67.60;;;;;;5064366;28;20898;-69
2022/03/27 11:54:35;;;;;;;7.97;6.10;;;28.10;66.60;;;;;;5081060;28;20458;-69
2022/03/27 11:57:04;;;;;;;10.47;7.30;;;27.10;66.30;;;;;;5071658;28;20505;-70
2022/03/27 11:59:43;;;;;;;8.20;6.37;;;26.70;65.30;;;;;;5088476;28;20489;-70
2022/03/27 12:02:10;;;;;;;9.60;6.87;;;27.30;65.80;;;;;;5087111;28;20457;-70
2022/03/27 12:04:53;;;;;;;17.33;6.87;;;28.20;63.80;;;;;;5077846;28;20456;-68
2022/03/27 12:07:22;;;;;;;5.97;5.37;;;27.80;60.80;;;;;;5073247;28;20973;-70
2022/03/27 12:09:58;;;;;;;6.03;5.37;;;27.20;62.00;;;;;;5084131;27;25390;-70
2022/03/27 12:12:26;;;;;;;7.00;4.83;;;26.70;59.60;;;;;;5089596;28;21804;-70
2022/03/27 12:14:55;;;;;;;7.90;6.33;;;27.00;61.10;;;;;;5097434;27;20468;-70
2022/03/27 12:17:23;;;;;;;13.87;6.53;;;27.70;60.00;;;;;;5097971;27;20457;-70
2022/03/27 12:20:09;;;;;;;10.50;7.53;;;27.90;58.00;;;;;;5085556;27;20530;-70
2022/03/27 12:22:38;;;;;;;10.93;7.60;;;26.90;60.30;;;;;;5072615;27;20470;-71
2022/03/27 12:25:10;;;;;;;9.20;7.33;;;26.40;60.40;;;;;;5092844;27;20495;-70
2022/03/27 12:30:31;;;;;;;8.13;6.07;;;27.60;59.70;;;;;;5070152;28;21154;-70
2022/03/27 12:33:00;;;;;;;9.60;6.70;;;27.00;61.70;;;;;;5104184;27;20452;-70
2022/03/27 12:35:27;;;;;;;11.00;6.83;;;27.20;58.90;;;;;;5100484;27;20525;-70
2022/03/27 12:37:54;;;;;;;8.13;6.10;;;27.20;59.00;;;;;;5091750;27;20515;-70
2022/03/27 12:40:21;;;;;;;9.60;6.87;;;27.70;58.10;;;;;;5080674;27;20823;-70
2022/03/27 12:42:50;;;;;;;7.10;4.80;;;27.70;57.50;;;;;;5098467;27;20526;-69
2022/03/27 12:45:18;;;;;;;9.23;5.70;;;27.50;56.30;;;;;;5096257;27;20552;-70
2022/03/27 12:47:47;;;;;;;17.00;6.43;;;27.00;58.00;;;;;;5097492;27;20651;-70
2022/03/27 12:50:16;;;;;;;7.53;4.77;;;26.80;58.10;;;;;;5090736;27;20959;-71
2022/03/27 12:52:53;;;;;;;7.23;5.57;;;27.40;57.60;;;;;;5091818;27;20463;-70
2022/03/27 12:55:20;;;;;;;8.80;5.83;;;26.80;57.30;;;;;;5087874;27;21117;-70
2022/03/27 12:57:52;;;;;;;7.50;6.20;;;27.50;57.00;;;;;;5093904;27;20480;-70
2022/03/27 13:00:21;;;;;;;13.23;6.40;;;27.60;58.60;;;;;;5101269;27;20480;-71
2022/03/27 13:02:49;;;;;;;7.50;5.40;;;28.40;56.00;;;;;;5107263;27;20514;-70